• Join FlightAware (Why Join?)
  • Login
  • US Flag 
11:55AM EDT


 

Airport Tracker/Info


-or-


 

Live Flight TrackerFlight Track Log ✈ ASQ5963 ✈ 08-Jul-2013 ✈ KIAH - KTYS

Flight Track Log - Related Links

Times and Time Zones

All times are in EDT time to prevent confusion due to time zone crossing. See the ASQ5963 flight status page for this flight to view local times or setup timezone preferences in your user account.

Time Position Orientation Groundspeed Altitude Reporting Facility
EDT Latitude Longitude Course Direction KTS MPH feet Rate Location/Type
02:12PM 29.9786 -95.2981 41° Northeast 203 234 600  Level Houston Center
02:13PM 30.0144 -95.2561 45° Northeast 249 287 1,700 1,260 Climbing Houston Center
02:13PM 30.0728 -95.2506 North 266 306 3,000 1,860 Climbing Houston Center
02:14PM 30.1517 -95.2383 North 283 326 5,000 1,920 Climbing Houston Center
02:15PM 30.3908 -95.1713 23° Northeast  Level FlightAware Approximate
02:15PM 30.2369 -95.2303 North 293 337 7,000  Level Houston Center
02:16PM 30.4883 -95.1170 27° Northeast  Level FlightAware Approximate
02:17PM 30.5848 -95.0652 41° Northeast  Level FlightAware Approximate
02:17PM 30.3453 -95.1972 15° North 306 352 9,500  Level Houston Center
02:18PM 30.4350 -95.1703 15° North 315 362 10,500 720 Climbing Houston Center
02:19PM 30.5239 -95.1158 28° Northeast 364 419 11,000 660 Climbing Houston Center
02:20PM 30.5711 -95.0094 63° Northeast 379 436 11,900 1,020 Climbing Houston Center
02:21PM 30.6075 -94.8975 69° East 374 430 13,200 1,200 Climbing Houston Center
02:22PM 30.6428 -94.7869 70° East 368 423 14,500 1,320 Climbing Houston Center
02:23PM 30.6917 -94.6917 59° Northeast 355 409 16,000 1,200 Climbing Houston Center
02:24PM 30.8011 -94.6492 18° North 350 403 17,000 600 Climbing Houston Center
02:25PM 30.9050 -94.6286 10° North 379 436 17,300 540 Climbing Houston Center
02:26PM 31.0111 -94.6297 359° North 383 441 18,200 960 Climbing Houston Center
02:27PM 31.1125 -94.6311 359° North 369 425 19,300 1,080 Climbing Houston Center
02:28PM 31.2097 -94.6172 North 372 428 20,500 1,200 Climbing Houston Center
02:29PM 31.2681 -94.5081 58° Northeast 338 389 21,900 720 Climbing Houston Center
02:30PM 31.2933 -94.3975 75° East 349 402 22,100 720 Climbing Houston Center
02:31PM 31.3186 -94.2831 75° East 359 413 23,400 1,080 Climbing Houston Center
02:32PM 31.3428 -94.1719 76° East 355 409 24,400 960 Climbing Houston Center
02:33PM 31.3667 -94.0603 76° East 354 407 25,400 960 Climbing Houston Center
02:34PM 31.3911 -93.9494 75° East 353 406 26,400 960 Climbing Houston Center
02:35PM 31.4203 -93.8122 76° East 360 414 27,400 900 Climbing Houston Center
02:36PM 31.4444 -93.6983 76° East 360 414 28,300 780 Climbing Houston Center
02:37PM 31.4672 -93.5864 77° East 366 421 29,100 720 Climbing Houston Center
02:38PM 31.4922 -93.4717 76° East 365 420 29,900 780 Climbing Houston Center
02:39PM 31.5175 -93.3550 76° East 367 422 30,800 780 Climbing Houston Center
02:40PM 31.5422 -93.2361 76° East 370 426 31,600 840 Climbing Houston Center
02:42PM 31.5711 -93.0931 77° East 375 432 32,600 900 Climbing Houston Center
02:43PM 31.5961 -92.9744 76° East 375 432 33,500 780 Climbing Houston Center
02:44PM 31.6197 -92.8558 77° East 374 430 34,300 720 Climbing Houston Center
02:45PM 31.6442 -92.7372 76° East 374 430 35,000 300 Climbing Houston Center
02:46PM 31.6706 -92.6136 76° East 381 438 35,000  Level Houston Center
02:47PM 31.6964 -92.4864 77° East 401 461 35,000  Level Houston Center
02:48PM 31.7239 -92.3522 76° East 417 480 35,000  Level Houston Center
02:49PM 31.7553 -92.1881 77° East 426 490 35,000  Level Houston Center
02:50PM 31.7831 -92.0539 76° East 425 489 35,000  Level Houston Center
02:51PM 31.8086 -91.9136 78° East 422 486 35,000  Level Houston Center
02:52PM 31.8342 -91.7811 77° East 418 481 35,000  Level Houston Center
02:53PM 31.8611 -91.6469 77° East 420 483 35,000  Level Houston Center
02:54PM 31.8878 -91.5108 77° East 426 490 35,000  Level Houston Center
02:55PM 31.9128 -91.3772 78° East 420 483 35,000  Level Houston Center
02:56PM 31.9439 -91.2178 77° East 417 480 35,000  Level Houston Center
02:57PM 31.9792 -91.0867 72° East 419 482 35,000  Level Houston Center
02:58PM 32.0258 -90.9614 66° East 416 479 35,000  Level Houston Center
02:59PM 32.0728 -90.8339 66° East 423 487 35,000  Level Houston Center
03:00PM 32.1225 -90.7028 66° East 426 490 35,000  Level Houston Center
03:01PM 32.1689 -90.5728 67° East 429 494 35,000  Level Houston Center
03:02PM 32.2294 -90.4017 67° East 416 479 35,000  Level Memphis Center
03:03PM 32.2753 -90.2764 67° East 416 479 35,000  Level Memphis Center
03:04PM 32.3231 -90.1508 66° East 416 479 35,000  Level Memphis Center
03:05PM 32.3647 -90.0350 67° East 416 479 35,000  Level Memphis Center
03:06PM 32.4122 -89.9094 66° East 411 473 35,000  Level Memphis Center
03:07PM 32.4556 -89.7811 68° East 417 480 35,000  Level Memphis Center
03:08PM 32.5028 -89.6553 66° East 417 480 35,000  Level Memphis Center
03:09PM 32.5481 -89.5267 67° East 417 480 35,000  Level Memphis Center
03:10PM 32.5931 -89.3981 67° East 417 480 35,000  Level Memphis Center
03:11PM 32.6381 -89.2742 67° East 417 480 35,000  Level Memphis Center
03:12PM 32.6847 -89.1453 67° East 417 480 35,000  Level Memphis Center
03:13PM 32.7294 -89.0211 67° East 417 480 35,000  Level Memphis Center
03:14PM 32.7778 -88.8797 68° East 412 474 35,000  Level Memphis Center
03:15PM 32.8222 -88.7528 67° East 412 474 35,000  Level Memphis Center
03:16PM 32.8664 -88.6258 67° East 412 474 35,000  Level Memphis Center
03:17PM 32.9128 -88.5014 66° East 412 474 35,000  Level Memphis Center
03:18PM 32.9628 -88.3739 65° Northeast 412 474 35,000  Level Memphis Center
03:19PM 33.0342 -88.2683 51° Northeast 412 474 35,000  Level Memphis Center
03:20PM 33.0972 -88.1750 51° Northeast 407 468 35,000  Level Memphis Center
03:22PM 33.2456 -87.9608 50° Northeast 411 473 35,000  Level Atlanta Center
03:23PM 33.3197 -87.8547 50° Northeast 411 473 35,000  Level Atlanta Center
03:24PM 33.3942 -87.7436 51° Northeast 416 479 35,000  Level Atlanta Center
03:25PM 33.4683 -87.6347 51° Northeast 416 479 35,000  Level Atlanta Center
03:26PM 33.5403 -87.5256 52° Northeast 416 479 35,000  Level Atlanta Center
03:27PM 33.6119 -87.4236 50° Northeast 411 473 35,000  Level Atlanta Center
03:28PM 33.6839 -87.3167 51° Northeast 411 473 35,000  Level Atlanta Center
03:29PM 33.7575 -87.2094 50° Northeast 416 479 35,000  Level Atlanta Center
03:30PM 33.8314 -87.1022 50° Northeast 416 479 35,000  Level Atlanta Center
03:31PM 33.9028 -86.9922 52° Northeast 416 479 35,000  Level Atlanta Center
03:32PM 33.9786 -86.8819 50° Northeast 416 479 35,000  Level Atlanta Center
03:33PM 34.0519 -86.7717 51° Northeast 416 479 35,000  Level Atlanta Center
03:34PM 34.1253 -86.6611 51° Northeast 416 479 35,000  Level Atlanta Center
03:35PM 34.1986 -86.5528 51° Northeast 416 479 35,000  Level Atlanta Center
03:36PM 34.2717 -86.4469 50° Northeast 416 479 35,000  Level Atlanta Center
03:37PM 34.3383 -86.3481 51° Northeast 416 479 35,000  Level Atlanta Center
03:38PM 34.4092 -86.2369 52° Northeast 416 479 35,000 -300 Level Atlanta Center
03:39PM 34.4800 -86.1278 52° Northeast 416 479 34,400 -1,080 Descending Atlanta Center
03:40PM 34.5361 -86.0081 60° Northeast 409 471 32,900 -1,620 Descending Atlanta Center
03:41PM 34.5717 -85.8703 73° East 409 471 31,200 -1,740 Descending Atlanta Center
03:42PM 34.6028 -85.7372 74° East 409 471 29,500 -1,800 Descending Atlanta Center
03:43PM 34.6358 -85.5989 74° East 409 471 27,700 -1,920 Descending Atlanta Center
03:44PM 34.6667 -85.4656 74° East 414 476 25,700 -1,800 Descending Atlanta Center
03:45PM 34.7306 -85.3531 55° Northeast 409 471 24,100 -900 Descending Atlanta Center
03:46PM 34.8131 -85.2456 47° Northeast 409 471 24,000 -60 Descending Atlanta Center
03:47PM 34.8975 -85.1403 46° Northeast 419 482 24,000  Level Atlanta Center
03:48PM 34.9903 -85.0200 47° Northeast 424 488 24,000  Level Atlanta Center
03:49PM 35.0747 -84.9092 47° Northeast 439 505 24,000 -720 Level Atlanta Center
03:50PM 35.1547 -84.8058 47° Northeast 439 505 22,600 -1,800 Descending Atlanta Center
03:51PM 35.2283 -84.7100 47° Northeast 409 471 20,500 -2,160 Descending Atlanta Center
03:52PM 35.2975 -84.6189 47° Northeast 385 443 18,300 -2,160 Descending Atlanta Center
03:53PM 35.3750 -84.5456 38° Northeast 357 411 16,200 -2,040 Descending Atlanta Center
03:54PM 35.4547 -84.4825 33° Northeast 346 398 14,300 -1,920 Descending Atlanta Center
03:55PM 35.5383 -84.4189 32° Northeast 341 392 12,400 -1,800 Descending Atlanta Center
03:56PM 35.6197 -84.3556 32° Northeast 346 398 10,800 -1,500 Descending Atlanta Center
03:57PM 35.6931 -84.3022 31° Northeast 330 380 9,500 -1,560 Descending Atlanta Center
03:58PM 35.7578 -84.2433 36° Northeast 302 348 7,700 -1,500 Descending Atlanta Center
03:59PM 35.8100 -84.1744 47° Northeast 283 326 6,500 -1,560 Descending Atlanta Center
04:00PM 35.8600 -84.1081 47° Northeast 266 306 4,600 -1,320 Descending Atlanta Center
04:01PM 35.9081 -84.0439 47° Northeast 261 300 3,900 -720 Descending Atlanta Center